createdAt,value
2022-09-11T00:02:01.775Z,101943.88
2022-09-11T00:04:28.224Z,101939.44
2022-09-11T00:06:54.532Z,101943.06
2022-09-11T00:09:21.008Z,101951.13
2022-09-11T00:11:47.331Z,101951.13
2022-09-11T00:14:14.622Z,101959.09
2022-09-11T00:16:44.795Z,101962.22
2022-09-11T00:19:19.855Z,101959.38
2022-09-11T00:21:47.356Z,101949.75
2022-09-11T00:24:13.739Z,101956.72
2022-09-11T00:26:42.268Z,101954.56
2022-09-11T00:29:09.307Z,101955.91
2022-09-11T00:31:35.721Z,101955.06
2022-09-11T00:34:02.122Z,101954.22
2022-09-11T00:36:34.988Z,101950.72
2022-09-11T00:39:01.352Z,101949.97
2022-09-11T00:41:36.622Z,101948.31
2022-09-11T00:44:28.147Z,101957.00
2022-09-11T00:46:58.170Z,101952.91
2022-09-11T00:49:44.471Z,101955.31
2022-09-11T00:52:23.578Z,101957.25
2022-09-11T00:55:04.264Z,101957.97
2022-09-11T00:57:36.577Z,101967.00
2022-09-11T01:00:05.482Z,101967.25
2022-09-11T01:02:34.393Z,101953.66
2022-09-11T01:05:01.025Z,101955.31
2022-09-11T01:07:29.963Z,101947.88
2022-09-11T01:09:57.179Z,101952.69
2022-09-11T01:12:57.521Z,101959.06
2022-09-11T01:15:38.462Z,101954.13
2022-09-11T01:18:29.446Z,101951.47
2022-09-11T01:21:15.775Z,101954.88
2022-09-11T01:23:54.858Z,101954.63
2022-09-11T01:27:12.528Z,101966.66
2022-09-11T01:29:57.941Z,101973.38
2022-09-11T01:32:35.321Z,101963.75
2022-09-11T01:35:13.625Z,101972.66
2022-09-11T01:38:01.001Z,101973.63
2022-09-11T01:40:37.096Z,101978.19
2022-09-11T01:43:08.687Z,101981.94
2022-09-11T01:45:37.199Z,101982.28
2022-09-11T01:48:05.530Z,101979.41
2022-09-11T01:50:35.461Z,101980.38
2022-09-11T01:53:05.019Z,101979.53
2022-09-11T01:55:37.720Z,101986.00
2022-09-11T01:58:11.044Z,101980.09
2022-09-11T02:00:39.993Z,101985.03
2022-09-11T02:03:17.325Z,101984.44
2022-09-11T02:05:55.774Z,101981.31
2022-09-11T02:08:37.354Z,101977.94
2022-09-11T02:11:07.352Z,101979.63
2022-09-11T02:14:10.347Z,101978.78
2022-09-11T02:16:50.058Z,101987.06
2022-09-11T02:19:23.926Z,101987.31
2022-09-11T02:21:53.728Z,101983.19
2022-09-11T02:24:22.703Z,101977.16
2022-09-11T02:26:54.006Z,101982.69
2022-09-11T02:29:21.102Z,101991.69
2022-09-11T02:31:49.177Z,101992.03
2022-09-11T02:34:17.838Z,101992.50
2022-09-11T02:37:12.190Z,101995.28
2022-09-11T02:40:20.657Z,102000.91
2022-09-11T02:43:04.642Z,102003.16
2022-09-11T02:46:19.629Z,102000.88
2022-09-11T02:48:58.139Z,102010.00
2022-09-11T02:51:51.040Z,102006.28
2022-09-11T02:54:35.670Z,102003.88
2022-09-11T02:57:10.239Z,102008.31
2022-09-11T02:59:42.093Z,102009.16
2022-09-11T03:02:15.771Z,102007.13
2022-09-11T03:04:42.163Z,102008.06
2022-09-11T03:07:09.076Z,102003.97
2022-09-11T03:09:35.674Z,102004.72
2022-09-11T03:12:02.929Z,102009.78
2022-09-11T03:14:29.218Z,102003.41
2022-09-11T03:16:56.703Z,102007.84
2022-09-11T03:19:23.072Z,102012.19
2022-09-11T03:21:50.952Z,102010.72
2022-09-11T03:24:17.407Z,102008.56
2022-09-11T03:26:44.159Z,102013.34
2022-09-11T03:29:10.478Z,102009.94
2022-09-11T03:31:39.255Z,102016.19
2022-09-11T03:34:06.399Z,102020.03
2022-09-11T03:36:34.312Z,102021.09
2022-09-11T03:39:01.842Z,102024.91
2022-09-11T03:41:28.347Z,102019.97
2022-09-11T03:43:54.679Z,102024.75
2022-09-11T03:46:20.987Z,102014.41
2022-09-11T03:48:47.323Z,102010.09
2022-09-11T03:51:17.470Z,102017.78
2022-09-11T03:53:44.313Z,102024.13
2022-09-11T03:56:11.798Z,102009.31
2022-09-11T03:58:38.313Z,102012.94
2022-09-11T04:01:10.964Z,102016.97
2022-09-11T04:03:37.322Z,102022.25
2022-09-11T04:06:03.776Z,102018.91
2022-09-11T04:08:33.790Z,102018.25
2022-09-11T04:11:03.690Z,102020.38
2022-09-11T04:13:31.580Z,102022.41
2022-09-11T04:16:04.498Z,102023.38
2022-09-11T04:18:32.562Z,102025.50
2022-09-11T04:20:58.869Z,102024.25
2022-09-11T04:23:25.373Z,102041.38
2022-09-11T04:25:53.217Z,102037.34
2022-09-11T04:28:19.682Z,102039.47
2022-09-11T04:30:46.008Z,102028.91
2022-09-11T04:33:12.367Z,102028.72
2022-09-11T04:35:40.297Z,102032.06
2022-09-11T04:38:07.844Z,102033.75
2022-09-11T04:40:35.231Z,102028.72
2022-09-11T04:43:02.327Z,102031.91
2022-09-11T04:45:33.357Z,102034.00
2022-09-11T04:48:00.787Z,102036.75
2022-09-11T04:50:28.855Z,102043.06
2022-09-11T04:52:55.281Z,102046.78
2022-09-11T04:55:21.630Z,102048.47
2022-09-11T04:57:47.930Z,102044.16
2022-09-11T05:00:14.996Z,102039.59
2022-09-11T05:02:41.307Z,102046.56
2022-09-11T05:05:09.194Z,102043.72
2022-09-11T05:07:36.418Z,102049.53
2022-09-11T05:10:03.069Z,102053.53
2022-09-11T05:12:31.757Z,102059.44
2022-09-11T05:14:58.986Z,102059.44
2022-09-11T05:17:25.302Z,102071.91
2022-09-11T05:19:51.624Z,102070.41
2022-09-11T05:22:17.951Z,102067.78
2022-09-11T05:24:44.271Z,102081.72
2022-09-11T05:27:11.559Z,102076.22
2022-09-11T05:29:38.530Z,102076.00
2022-09-11T05:32:05.951Z,102073.88
2022-09-11T05:34:32.270Z,102076.81
2022-09-11T05:36:58.671Z,102093.00
2022-09-11T05:39:25.206Z,102089.94
2022-09-11T05:41:52.315Z,102103.44
2022-09-11T05:44:19.532Z,102096.75
2022-09-11T05:46:46.081Z,102100.84
2022-09-11T05:49:12.831Z,102103.69
2022-09-11T05:51:41.507Z,102103.97
2022-09-11T05:54:08.099Z,102102.44
2022-09-11T05:56:34.723Z,102101.81
2022-09-11T05:59:02.413Z,102104.50
2022-09-11T06:01:28.868Z,102102.25
2022-09-11T06:03:55.507Z,102103.59
2022-09-11T06:06:22.816Z,102101.22
2022-09-11T06:08:51.381Z,102110.72
2022-09-11T06:11:19.578Z,102109.44
2022-09-11T06:13:47.177Z,102115.44
2022-09-11T06:16:18.230Z,102115.75
2022-09-11T06:18:48.973Z,102117.84
2022-09-11T06:21:19.107Z,102115.56
2022-09-11T06:23:50.442Z,102120.53
2022-09-11T06:26:19.563Z,102124.06
2022-09-11T06:28:47.311Z,102123.13
2022-09-11T06:31:17.042Z,102112.78
2022-09-11T06:33:44.196Z,102121.22
2022-09-11T06:36:14.345Z,102119.97
2022-09-11T06:38:40.955Z,102121.19
2022-09-11T06:41:12.323Z,102117.06
2022-09-11T06:43:38.710Z,102124.31
2022-09-11T06:46:13.397Z,102123.09
2022-09-11T06:48:44.493Z,102130.56
2022-09-11T06:51:13.140Z,102127.69
2022-09-11T06:53:41.022Z,102127.13
2022-09-11T06:56:09.963Z,102131.38
2022-09-11T06:58:36.267Z,102119.84
2022-09-11T07:01:03.891Z,102118.91
2022-09-11T07:03:30.663Z,102124.75
2022-09-11T07:05:56.983Z,102117.38
2022-09-11T07:08:25.091Z,102120.78
2022-09-11T07:10:51.626Z,102125.56
2022-09-11T07:13:18.049Z,102128.94
2022-09-11T07:15:44.389Z,102125.03
2022-09-11T07:18:11.415Z,102129.25
2022-09-11T07:20:39.985Z,102135.16
2022-09-11T07:23:06.307Z,102135.06
2022-09-11T07:25:32.654Z,102139.38
2022-09-11T07:27:59.047Z,102139.69
2022-09-11T07:30:26.078Z,102131.50
2022-09-11T07:32:52.407Z,102135.50
2022-09-11T07:35:21.622Z,102136.44
2022-09-11T07:37:50.815Z,102139.81
2022-09-11T07:40:17.516Z,102135.56
2022-09-11T07:42:43.914Z,102142.53
2022-09-11T07:45:10.643Z,102147.41
2022-09-11T07:47:38.449Z,102146.28
2022-09-11T07:50:05.637Z,102151.78
2022-09-11T07:52:32.116Z,102148.53
2022-09-11T07:54:58.416Z,102151.63
2022-09-11T07:57:24.783Z,102147.78
2022-09-11T07:59:51.565Z,102144.84
2022-09-11T08:02:18.039Z,102148.13
2022-09-11T08:04:44.862Z,102151.97
2022-09-11T08:07:11.683Z,102151.63
2022-09-11T08:09:38.020Z,102152.47
2022-09-11T08:12:04.685Z,102149.31
2022-09-11T08:14:31.220Z,102155.09
2022-09-11T08:16:58.523Z,102149.88
2022-09-11T08:19:24.912Z,102146.41
2022-09-11T08:21:51.539Z,102145.44
2022-09-11T08:24:18.470Z,102151.41
2022-09-11T08:26:48.719Z,102149.72
2022-09-11T08:29:15.471Z,102152.91
2022-09-11T08:31:41.814Z,102159.84
2022-09-11T08:34:09.807Z,102160.94
2022-09-11T08:36:36.199Z,102158.44
2022-09-11T08:39:03.352Z,102159.53
2022-09-11T08:41:49.142Z,102156.91
2022-09-11T08:44:44.480Z,102161.66
2022-09-11T08:47:19.072Z,102164.53
2022-09-11T08:49:55.163Z,102165.88
2022-09-11T08:52:21.757Z,102168.09
2022-09-11T08:54:48.217Z,102158.31
2022-09-11T08:57:54.518Z,102165.50
2022-09-11T09:00:23.319Z,102163.50
2022-09-11T09:03:12.491Z,102171.25
2022-09-11T09:05:46.799Z,102162.19
2022-09-11T09:08:38.191Z,102173.06
2022-09-11T09:11:09.459Z,102168.44
2022-09-11T09:14:09.723Z,102167.72
2022-09-11T09:16:53.593Z,102171.28
2022-09-11T09:19:29.592Z,102174.97
2022-09-11T09:22:24.639Z,102176.09
2022-09-11T09:24:55.588Z,102171.78
2022-09-11T09:27:30.284Z,102169.59
2022-09-11T09:30:01.806Z,102165.38
2022-09-11T09:32:39.878Z,102168.50
2022-09-11T09:35:16.955Z,102175.00
2022-09-11T09:37:43.930Z,102166.59
2022-09-11T09:40:10.973Z,102168.69
2022-09-11T09:42:58.221Z,102179.13
2022-09-11T09:45:52.115Z,102178.25
2022-09-11T09:48:18.482Z,102188.47
2022-09-11T09:50:44.916Z,102176.47
2022-09-11T09:53:27.263Z,102182.66
2022-09-11T09:55:56.331Z,102174.75
2022-09-11T09:58:27.454Z,102166.59
2022-09-11T10:00:53.763Z,102167.31
2022-09-11T10:03:23.091Z,102176.81
2022-09-11T10:05:53.336Z,102177.78
2022-09-11T10:08:36.050Z,102176.19
2022-09-11T10:11:12.156Z,102165.81
2022-09-11T10:13:42.413Z,102150.03
2022-09-11T10:16:26.582Z,102158.94
2022-09-11T10:18:54.650Z,102152.63
2022-09-11T10:21:24.588Z,102154.22
2022-09-11T10:23:55.606Z,102155.34
2022-09-11T10:26:31.307Z,102166.31
2022-09-11T10:29:19.558Z,102157.09
2022-09-11T10:31:50.781Z,102157.59
2022-09-11T10:34:20.041Z,102161.06
2022-09-11T10:37:02.732Z,102164.59
2022-09-11T10:39:32.354Z,102173.03
2022-09-11T10:42:11.254Z,102167.38
2022-09-11T10:44:43.195Z,102159.84
2022-09-11T10:47:17.275Z,102146.69
2022-09-11T10:49:44.861Z,102161.31
2022-09-11T10:52:11.108Z,102167.03
2022-09-11T10:55:01.833Z,102163.94
2022-09-11T10:57:45.356Z,102163.63
2022-09-11T11:00:30.245Z,102157.81
2022-09-11T11:03:12.482Z,102160.19
2022-09-11T11:06:04.044Z,102157.16
2022-09-11T11:09:13.655Z,102150.28
2022-09-11T11:12:06.673Z,102158.16
2022-09-11T11:14:54.724Z,102160.72
2022-09-11T11:18:03.172Z,102160.69
2022-09-11T11:20:50.236Z,102148.38
2022-09-11T11:23:22.188Z,102161.31
2022-09-11T11:26:11.577Z,102162.78
2022-09-11T11:28:50.082Z,102164.41
2022-09-11T11:31:46.442Z,102165.53
2022-09-11T11:34:30.419Z,102169.78
2022-09-11T11:37:15.056Z,102169.44
2022-09-11T11:40:00.102Z,102173.53
2022-09-11T11:42:44.172Z,102163.75
2022-09-11T11:45:21.145Z,102171.34
2022-09-11T11:47:49.020Z,102166.03
2022-09-11T11:50:31.938Z,102166.81
2022-09-11T11:53:40.102Z,102164.91
2022-09-11T11:56:33.160Z,102161.88
2022-09-11T11:59:22.717Z,102157.25
2022-09-11T12:02:03.228Z,102154.88
2022-09-11T12:04:56.767Z,102156.19
2022-09-11T12:07:30.035Z,102146.88
2022-09-11T12:09:58.818Z,102147.81
2022-09-11T12:12:29.416Z,102135.25
2022-09-11T12:15:08.349Z,102147.22
2022-09-11T12:17:36.874Z,102152.03
2022-09-11T12:20:12.208Z,102153.50
2022-09-11T12:22:42.651Z,102147.19
2022-09-11T12:25:21.065Z,102143.31
2022-09-11T12:27:48.562Z,102146.41
2022-09-11T12:30:17.575Z,102135.44
2022-09-11T12:32:52.204Z,102134.31
2022-09-11T12:35:29.465Z,102133.66
2022-09-11T12:38:08.918Z,102129.22
2022-09-11T12:40:59.781Z,102136.72
2022-09-11T12:43:35.205Z,102136.94
2022-09-11T12:46:11.436Z,102138.22
2022-09-11T12:48:42.679Z,102131.47
2022-09-11T12:51:23.699Z,102116.50
2022-09-11T12:53:53.614Z,102112.25
2022-09-11T12:56:23.335Z,102120.50
2022-09-11T12:58:57.253Z,102119.13
2022-09-11T13:01:30.403Z,102112.50
2022-09-11T13:04:03.180Z,102117.97
2022-09-11T13:06:45.767Z,102110.25
2022-09-11T13:09:29.513Z,102115.91
2022-09-11T13:12:17.120Z,102116.16
2022-09-11T13:14:50.971Z,102117.63
2022-09-11T13:17:34.165Z,102112.97
2022-09-11T13:20:03.308Z,102115.66
2022-09-11T13:22:34.551Z,102111.84
2022-09-11T13:25:18.597Z,102108.50
2022-09-11T13:27:51.423Z,102110.47
2022-09-11T13:30:21.566Z,102107.56
2022-09-11T13:33:00.069Z,102100.81
2022-09-11T13:35:28.571Z,102095.72
2022-09-11T13:38:05.958Z,102092.63
2022-09-11T13:40:47.462Z,102092.19
2022-09-11T13:43:20.724Z,102095.09
2022-09-11T13:45:47.507Z,102090.56
2022-09-11T13:48:22.752Z,102089.84
2022-09-11T13:50:50.812Z,102083.56
2022-09-11T13:53:20.139Z,102082.44
2022-09-11T13:55:48.680Z,102079.56
2022-09-11T13:58:24.587Z,102078.31
2022-09-11T14:00:55.160Z,102066.69
2022-09-11T14:03:28.019Z,102064.38
2022-09-11T14:05:57.462Z,102065.03
2022-09-11T14:08:37.913Z,102064.09
2022-09-11T14:11:11.469Z,102067.06
2022-09-11T14:13:53.280Z,102061.78
2022-09-11T14:16:36.210Z,102054.16
2022-09-11T14:19:13.077Z,102057.00
2022-09-11T14:21:46.467Z,102055.28
2022-09-11T14:24:32.514Z,102057.88
2022-09-11T14:27:04.257Z,102051.38
2022-09-11T14:29:32.891Z,102041.63
2022-09-11T14:32:39.979Z,102044.03
2022-09-11T14:35:09.728Z,102043.94
2022-09-11T14:37:45.618Z,102041.38
2022-09-11T14:40:17.104Z,102041.13
2022-09-11T14:42:45.200Z,102043.16
2022-09-11T14:45:18.893Z,102042.97
2022-09-11T14:47:45.290Z,102051.03
2022-09-11T14:50:12.517Z,102045.34
2022-09-11T14:52:41.091Z,102044.88
2022-09-11T14:55:13.103Z,102045.47
2022-09-11T14:57:39.514Z,102044.53
2022-09-11T15:00:06.482Z,102044.88
2022-09-11T15:02:32.770Z,102041.50
2022-09-11T15:04:59.270Z,102037.63
2022-09-11T15:07:27.301Z,102037.44
2022-09-11T15:09:54.763Z,102025.31
2022-09-11T15:12:21.888Z,102023.59
2022-09-11T15:14:58.221Z,102032.03
2022-09-11T15:17:27.027Z,102032.84
2022-09-11T15:19:53.634Z,102027.72
2022-09-11T15:22:20.195Z,102037.06
2022-09-11T15:24:46.995Z,102027.91
2022-09-11T15:27:14.887Z,102029.22
2022-09-11T15:29:42.459Z,102026.06
2022-09-11T15:32:09.698Z,102013.44
2022-09-11T15:34:35.986Z,102018.91
2022-09-11T15:37:02.515Z,102018.88
2022-09-11T15:39:28.941Z,102012.13
2022-09-11T15:41:56.273Z,102019.47
2022-09-11T15:44:25.362Z,102013.72
2022-09-11T15:46:53.436Z,102013.19
2022-09-11T15:49:22.251Z,102010.50
2022-09-11T15:51:49.566Z,102001.31
2022-09-11T15:54:16.226Z,102005.75
2022-09-11T15:56:43.211Z,102003.41
2022-09-11T15:59:11.673Z,102007.78
2022-09-11T16:01:38.429Z,101995.69
2022-09-11T16:04:08.891Z,101999.06
2022-09-11T16:06:38.610Z,101999.53
2022-09-11T16:09:07.792Z,102001.38
2022-09-11T16:11:36.467Z,102000.94
2022-09-11T16:14:03.198Z,102001.97
2022-09-11T16:16:29.536Z,102002.84
2022-09-11T16:18:58.365Z,102002.75
2022-09-11T16:21:27.044Z,102002.44
2022-09-11T16:23:59.212Z,102002.31
2022-09-11T16:26:29.007Z,101989.59
2022-09-11T16:28:55.394Z,102004.72
2022-09-11T16:31:21.720Z,101997.75
2022-09-11T16:33:48.583Z,101998.50
2022-09-11T16:36:18.583Z,101999.88
2022-09-11T16:38:45.924Z,101998.22
2022-09-11T16:41:18.746Z,101992.72
2022-09-11T16:43:47.773Z,101990.56
2022-09-11T16:46:17.129Z,101990.91
2022-09-11T16:48:44.123Z,101984.56
2022-09-11T16:51:11.457Z,101986.59
2022-09-11T16:53:38.186Z,101975.38
2022-09-11T16:56:10.384Z,101980.94
2022-09-11T16:58:37.158Z,101978.44
2022-09-11T17:01:09.202Z,101974.75
2022-09-11T17:03:41.260Z,101979.28
2022-09-11T17:06:08.508Z,101975.91
2022-09-11T17:08:36.928Z,101981.28
2022-09-11T17:11:04.387Z,101976.56
2022-09-11T17:13:31.238Z,101984.06
2022-09-11T17:16:02.215Z,101991.91
2022-09-11T17:18:28.987Z,101988.00
2022-09-11T17:20:57.128Z,101993.84
2022-09-11T17:23:23.597Z,101990.78
2022-09-11T17:25:50.911Z,101987.56
2022-09-11T17:28:19.934Z,101982.72
2022-09-11T17:30:46.779Z,101976.00
2022-09-11T17:33:14.317Z,101978.81
2022-09-11T17:35:42.359Z,101976.41
2022-09-11T17:38:09.467Z,101974.00
2022-09-11T17:40:36.513Z,101966.09
2022-09-11T17:43:04.363Z,101962.69
2022-09-11T17:45:31.124Z,101965.59
2022-09-11T17:47:57.603Z,101966.84
2022-09-11T17:50:24.153Z,101964.59
2022-09-11T17:52:50.706Z,101964.31
2022-09-11T17:55:17.103Z,101968.31
2022-09-11T17:57:45.413Z,101967.88
2022-09-11T18:00:12.918Z,101968.28
2022-09-11T18:02:40.102Z,101961.16
2022-09-11T18:05:07.109Z,101964.97
2022-09-11T18:07:33.428Z,101975.56
2022-09-11T18:09:59.854Z,101977.16
2022-09-11T18:12:28.197Z,101976.06
2022-09-11T18:14:55.934Z,101980.31
2022-09-11T18:17:22.587Z,101988.22
2022-09-11T18:19:50.011Z,101982.06
2022-09-11T18:22:19.859Z,101980.97
2022-09-11T18:24:46.328Z,101975.09
2022-09-11T18:27:12.634Z,101981.84
2022-09-11T18:29:40.526Z,101986.09
2022-09-11T18:32:06.895Z,101979.63
2022-09-11T18:34:33.283Z,101980.22
2022-09-11T18:37:00.475Z,101977.44
2022-09-11T18:39:26.893Z,101976.06
2022-09-11T18:41:53.296Z,101969.31
2022-09-11T18:44:21.582Z,101982.19
2022-09-11T18:46:51.703Z,101982.22
2022-09-11T18:49:18.027Z,101984.84
2022-09-11T18:51:44.363Z,101983.59
2022-09-11T18:54:15.931Z,101990.34
2022-09-11T18:56:42.412Z,101986.56
2022-09-11T18:59:10.002Z,101982.50
2022-09-11T19:01:36.496Z,101990.03
2022-09-11T19:04:07.323Z,101983.34
2022-09-11T19:06:34.254Z,101983.59
2022-09-11T19:09:01.662Z,101982.47
2022-09-11T19:11:29.817Z,101985.69
2022-09-11T19:14:02.297Z,101979.25
2022-09-11T19:16:29.332Z,101977.81
2022-09-11T19:18:55.919Z,101986.09
2022-09-11T19:21:23.924Z,101985.41
2022-09-11T19:23:55.707Z,101985.50
2022-09-11T19:26:24.223Z,101983.28
2022-09-11T19:28:51.213Z,101978.66
2022-09-11T19:31:24.868Z,101984.38
2022-09-11T19:33:52.017Z,101989.94
2022-09-11T19:36:21.673Z,101991.19
2022-09-11T19:38:49.673Z,101989.03
2022-09-11T19:41:21.008Z,101999.38
2022-09-11T19:43:48.236Z,101994.59
2022-09-11T19:46:19.879Z,101995.97
2022-09-11T19:48:46.699Z,101990.19
2022-09-11T19:51:14.239Z,101998.44
2022-09-11T19:53:41.630Z,102002.06
2022-09-11T19:56:09.617Z,101996.78
2022-09-11T19:58:36.151Z,102004.59
2022-09-11T20:01:09.023Z,102003.75
2022-09-11T20:03:38.676Z,102006.56
2022-09-11T20:06:06.466Z,102005.97
2022-09-11T20:08:33.767Z,102003.59
2022-09-11T20:11:06.575Z,102011.78
2022-09-11T20:13:34.380Z,102012.31
2022-09-11T20:16:06.194Z,102005.59
2022-09-11T20:18:32.815Z,102005.84
2022-09-11T20:21:07.431Z,102005.41
2022-09-11T20:23:34.345Z,102001.06
2022-09-11T20:26:07.707Z,101993.25
2022-09-11T20:28:34.119Z,101998.69
2022-09-11T20:31:00.625Z,101993.47
2022-09-11T20:33:27.246Z,101997.38
2022-09-11T20:35:53.593Z,101998.47
2022-09-11T20:38:20.176Z,101993.44
2022-09-11T20:40:46.523Z,101990.91
2022-09-11T20:43:12.911Z,101993.72
2022-09-11T20:45:39.227Z,101980.81
2022-09-11T20:48:05.533Z,101989.16
2022-09-11T20:50:32.592Z,101987.63
2022-09-11T20:53:00.443Z,101996.09
2022-09-11T20:55:27.191Z,101986.44
2022-09-11T20:57:53.515Z,101981.25
2022-09-11T21:00:20.329Z,101981.53
2022-09-11T21:02:46.635Z,101973.56
2022-09-11T21:05:12.971Z,101976.50
2022-09-11T21:07:39.318Z,101975.88
2022-09-11T21:10:06.387Z,101977.25
2022-09-11T21:12:32.702Z,101974.97
2022-09-11T21:14:59.018Z,101977.75
2022-09-11T21:17:25.327Z,101977.88
2022-09-11T21:19:56.746Z,101969.94
2022-09-11T21:22:23.661Z,101972.44
2022-09-11T21:24:49.989Z,101973.28
2022-09-11T21:27:16.323Z,101970.53
2022-09-11T21:29:42.649Z,101978.91
2022-09-11T21:32:08.961Z,101976.06
2022-09-11T21:34:35.284Z,101980.16
2022-09-11T21:37:01.587Z,101979.06
2022-09-11T21:39:27.927Z,101976.81
2022-09-11T21:41:54.218Z,101983.31
2022-09-11T21:44:20.537Z,101980.09
2022-09-11T21:46:46.864Z,101976.47
2022-09-11T21:49:13.403Z,101980.34
2022-09-11T21:51:40.638Z,101988.41
2022-09-11T21:54:06.947Z,101970.94
2022-09-11T21:56:33.704Z,101981.19
2022-09-11T21:59:00.191Z,101981.34
2022-09-11T22:01:27.577Z,101989.41
2022-09-11T22:03:54.624Z,101982.44
2022-09-11T22:06:24.591Z,101989.91
2022-09-11T22:08:51.940Z,101976.44
2022-09-11T22:11:18.303Z,101976.69
2022-09-11T22:13:44.929Z,101987.53
2022-09-11T22:16:13.306Z,101982.47
2022-09-11T22:18:40.887Z,101985.13
2022-09-11T22:21:09.192Z,101977.31
2022-09-11T22:23:36.229Z,101979.25
2022-09-11T22:26:07.132Z,101975.03
2022-09-11T22:28:33.913Z,101976.47
2022-09-11T22:31:00.606Z,101972.41
2022-09-11T22:33:26.964Z,101975.53
2022-09-11T22:35:53.278Z,101981.06
2022-09-11T22:38:19.571Z,101979.38
2022-09-11T22:40:51.954Z,101979.38
2022-09-11T22:43:18.247Z,101973.38
2022-09-11T22:45:50.609Z,101975.66
2022-09-11T22:48:17.500Z,101974.00
2022-09-11T22:50:43.890Z,101969.75
2022-09-11T22:53:10.315Z,101973.63
2022-09-11T22:55:36.633Z,101966.88
2022-09-11T22:58:02.950Z,101963.53
2022-09-11T23:00:29.287Z,101964.38
2022-09-11T23:02:55.615Z,101973.41
2022-09-11T23:05:40.273Z,101966.38
2022-09-11T23:08:06.590Z,101962.31
2022-09-11T23:10:32.878Z,101962.53
2022-09-11T23:12:59.221Z,101959.19
2022-09-11T23:15:25.509Z,101955.81
2022-09-11T23:17:51.812Z,101951.97
2022-09-11T23:20:18.718Z,101954.72
2022-09-11T23:22:45.058Z,101956.88
2022-09-11T23:25:11.417Z,101948.38
2022-09-11T23:27:37.941Z,101942.31
2022-09-11T23:30:04.750Z,101947.88
2022-09-11T23:32:31.045Z,101939.94
2022-09-11T23:34:57.586Z,101937.53
2022-09-11T23:37:23.899Z,101937.75
2022-09-11T23:39:50.778Z,101940.28
2022-09-11T23:42:17.151Z,101938.00
2022-09-11T23:44:43.487Z,101946.88
2022-09-11T23:47:09.807Z,101933.66
2022-09-11T23:49:36.648Z,101933.66
2022-09-11T23:52:04.721Z,101931.22
2022-09-11T23:54:31.066Z,101932.19
2022-09-11T23:56:57.860Z,101940.34
2022-09-11T23:59:24.170Z,101938.94
